sensor_id;sensor_type;location;lat;lon;timestamp;P1;durP1;ratioP1;P2;durP2;ratioP2
1999;SDS011;1001;48.87406500;9.59633600;2022-11-04T00:00:09;9.07;;;4.67;;
1999;SDS011;1001;48.87406500;9.59633600;2022-11-04T00:02:36;7.53;;;4.27;;
1999;SDS011;1001;48.87406500;9.59633600;2022-11-04T00:05:03;4.30;;;3.23;;
1999;SDS011;1001;48.87406500;9.59633600;2022-11-04T00:07:30;3.53;;;2.60;;
1999;SDS011;1001;48.87406500;9.59633600;2022-11-04T00:10:16;2.83;;;2.50;;
1999;SDS011;1001;48.87406500;9.59633600;2022-11-04T00:13:02;4.13;;;2.70;;
1999;SDS011;1001;48.87406500;9.59633600;2022-11-04T00:15:28;2.47;;;2.10;;
1999;SDS011;1001;48.87406500;9.59633600;2022-11-04T00:18:12;5.60;;;3.10;;
1999;SDS011;1001;48.87406500;9.59633600;2022-11-04T00:20:39;10.07;;;2.47;;
1999;SDS011;1001;48.87406500;9.59633600;2022-11-04T00:23:23;3.57;;;2.07;;
1999;SDS011;1001;48.87406500;9.59633600;2022-11-04T00:26:10;4.20;;;1.90;;
1999;SDS011;1001;48.87406500;9.59633600;2022-11-04T00:29:09;3.60;;;2.40;;
1999;SDS011;1001;48.87406500;9.59633600;2022-11-04T00:31:35;2.97;;;2.07;;
1999;SDS011;1001;48.87406500;9.59633600;2022-11-04T00:34:19;3.03;;;2.17;;
1999;SDS011;1001;48.87406500;9.59633600;2022-11-04T00:36:46;3.53;;;2.30;;
1999;SDS011;1001;48.87406500;9.59633600;2022-11-04T00:39:13;4.27;;;2.33;;
1999;SDS011;1001;48.87406500;9.59633600;2022-11-04T00:41:41;4.23;;;2.20;;
1999;SDS011;1001;48.87406500;9.59633600;2022-11-04T00:44:07;2.93;;;1.93;;
1999;SDS011;1001;48.87406500;9.59633600;2022-11-04T00:46:34;2.53;;;2.00;;
1999;SDS011;1001;48.87406500;9.59633600;2022-11-04T00:49:00;3.13;;;1.77;;
1999;SDS011;1001;48.87406500;9.59633600;2022-11-04T00:51:27;7.03;;;2.20;;
1999;SDS011;1001;48.87406500;9.59633600;2022-11-04T00:53:54;3.03;;;1.90;;
1999;SDS011;1001;48.87406500;9.59633600;2022-11-04T00:56:22;5.83;;;2.67;;
1999;SDS011;1001;48.87406500;9.59633600;2022-11-04T00:58:50;2.60;;;2.10;;
1999;SDS011;1001;48.87406500;9.59633600;2022-11-04T01:01:17;2.80;;;2.17;;
1999;SDS011;1001;48.87406500;9.59633600;2022-11-04T01:03:44;3.10;;;2.07;;
1999;SDS011;1001;48.87406500;9.59633600;2022-11-04T01:06:11;3.80;;;1.87;;
1999;SDS011;1001;48.87406500;9.59633600;2022-11-04T01:08:38;3.90;;;2.50;;
1999;SDS011;1001;48.87406500;9.59633600;2022-11-04T01:11:05;6.30;;;2.47;;
1999;SDS011;1001;48.87406500;9.59633600;2022-11-04T01:13:32;2.80;;;2.20;;
1999;SDS011;1001;48.87406500;9.59633600;2022-11-04T01:16:01;2.77;;;2.57;;
1999;SDS011;1001;48.87406500;9.59633600;2022-11-04T01:18:29;3.47;;;2.10;;
1999;SDS011;1001;48.87406500;9.59633600;2022-11-04T01:20:59;1.87;;;1.63;;
1999;SDS011;1001;48.87406500;9.59633600;2022-11-04T01:23:25;2.63;;;1.67;;
1999;SDS011;1001;48.87406500;9.59633600;2022-11-04T01:25:52;1.50;;;1.40;;
1999;SDS011;1001;48.87406500;9.59633600;2022-11-04T01:28:19;6.00;;;1.73;;
1999;SDS011;1001;48.87406500;9.59633600;2022-11-04T01:30:45;2.73;;;2.53;;
1999;SDS011;1001;48.87406500;9.59633600;2022-11-04T01:33:13;1.80;;;1.33;;
1999;SDS011;1001;48.87406500;9.59633600;2022-11-04T01:35:40;2.17;;;1.50;;
1999;SDS011;1001;48.87406500;9.59633600;2022-11-04T01:38:06;2.13;;;1.50;;
1999;SDS011;1001;48.87406500;9.59633600;2022-11-04T01:40:34;2.07;;;1.60;;
1999;SDS011;1001;48.87406500;9.59633600;2022-11-04T01:43:02;2.40;;;1.70;;
1999;SDS011;1001;48.87406500;9.59633600;2022-11-04T01:45:29;2.10;;;1.60;;
1999;SDS011;1001;48.87406500;9.59633600;2022-11-04T01:47:57;2.50;;;1.70;;
1999;SDS011;1001;48.87406500;9.59633600;2022-11-04T01:50:28;1.97;;;1.60;;
1999;SDS011;1001;48.87406500;9.59633600;2022-11-04T01:52:57;2.27;;;1.50;;
1999;SDS011;1001;48.87406500;9.59633600;2022-11-04T01:55:31;1.80;;;1.63;;
1999;SDS011;1001;48.87406500;9.59633600;2022-11-04T01:58:00;2.17;;;1.57;;
1999;SDS011;1001;48.87406500;9.59633600;2022-11-04T02:00:29;2.57;;;1.53;;
1999;SDS011;1001;48.87406500;9.59633600;2022-11-04T02:02:58;3.10;;;1.50;;
1999;SDS011;1001;48.87406500;9.59633600;2022-11-04T02:05:29;5.13;;;1.80;;
1999;SDS011;1001;48.87406500;9.59633600;2022-11-04T02:07:57;2.27;;;1.50;;
1999;SDS011;1001;48.87406500;9.59633600;2022-11-04T02:10:27;1.80;;;1.40;;
1999;SDS011;1001;48.87406500;9.59633600;2022-11-04T02:12:56;2.23;;;1.53;;
1999;SDS011;1001;48.87406500;9.59633600;2022-11-04T02:15:26;3.03;;;1.53;;
1999;SDS011;1001;48.87406500;9.59633600;2022-11-04T02:18:12;1.67;;;1.40;;
1999;SDS011;1001;48.87406500;9.59633600;2022-11-04T02:20:53;3.77;;;1.90;;
1999;SDS011;1001;48.87406500;9.59633600;2022-11-04T02:29:31;2.10;;;1.50;;
1999;SDS011;1001;48.87406500;9.59633600;2022-11-04T02:32:16;1.50;;;1.07;;
1999;SDS011;1001;48.87406500;9.59633600;2022-11-04T02:34:51;3.80;;;1.20;;
1999;SDS011;1001;48.87406500;9.59633600;2022-11-04T02:37:31;1.60;;;1.30;;
1999;SDS011;1001;48.87406500;9.59633600;2022-11-04T02:40:05;1.97;;;1.27;;
1999;SDS011;1001;48.87406500;9.59633600;2022-11-04T02:42:40;1.37;;;0.93;;
1999;SDS011;1001;48.87406500;9.59633600;2022-11-04T02:45:15;1.43;;;0.97;;
1999;SDS011;1001;48.87406500;9.59633600;2022-11-04T02:47:48;3.20;;;1.20;;
1999;SDS011;1001;48.87406500;9.59633600;2022-11-04T02:50:18;1.53;;;1.20;;
1999;SDS011;1001;48.87406500;9.59633600;2022-11-04T02:52:52;1.73;;;0.80;;
1999;SDS011;1001;48.87406500;9.59633600;2022-11-04T02:55:24;1.23;;;0.80;;
1999;SDS011;1001;48.87406500;9.59633600;2022-11-04T02:57:54;2.47;;;1.00;;
1999;SDS011;1001;48.87406500;9.59633600;2022-11-04T03:00:25;2.37;;;1.00;;
1999;SDS011;1001;48.87406500;9.59633600;2022-11-04T03:02:54;4.40;;;1.13;;
1999;SDS011;1001;48.87406500;9.59633600;2022-11-04T03:05:25;2.00;;;1.10;;
1999;SDS011;1001;48.87406500;9.59633600;2022-11-04T03:07:54;1.73;;;1.17;;
1999;SDS011;1001;48.87406500;9.59633600;2022-11-04T03:10:25;2.17;;;0.97;;
1999;SDS011;1001;48.87406500;9.59633600;2022-11-04T03:13:00;1.17;;;0.80;;
1999;SDS011;1001;48.87406500;9.59633600;2022-11-04T03:15:32;1.07;;;0.60;;
1999;SDS011;1001;48.87406500;9.59633600;2022-11-04T03:18:02;1.50;;;0.90;;
1999;SDS011;1001;48.87406500;9.59633600;2022-11-04T03:20:39;1.90;;;1.10;;
1999;SDS011;1001;48.87406500;9.59633600;2022-11-04T03:23:06;2.13;;;1.03;;
1999;SDS011;1001;48.87406500;9.59633600;2022-11-04T03:25:35;1.60;;;0.80;;
1999;SDS011;1001;48.87406500;9.59633600;2022-11-04T03:28:09;1.87;;;0.90;;
1999;SDS011;1001;48.87406500;9.59633600;2022-11-04T03:30:46;1.87;;;1.10;;
1999;SDS011;1001;48.87406500;9.59633600;2022-11-04T03:33:17;1.77;;;1.10;;
1999;SDS011;1001;48.87406500;9.59633600;2022-11-04T03:35:47;1.07;;;0.80;;
1999;SDS011;1001;48.87406500;9.59633600;2022-11-04T03:38:13;1.73;;;1.17;;
1999;SDS011;1001;48.87406500;9.59633600;2022-11-04T03:40:40;2.00;;;1.13;;
1999;SDS011;1001;48.87406500;9.59633600;2022-11-04T03:43:08;1.53;;;1.00;;
1999;SDS011;1001;48.87406500;9.59633600;2022-11-04T03:45:38;1.80;;;1.10;;
1999;SDS011;1001;48.87406500;9.59633600;2022-11-04T03:48:08;3.07;;;1.20;;
1999;SDS011;1001;48.87406500;9.59633600;2022-11-04T03:50:39;1.97;;;0.90;;
1999;SDS011;1001;48.87406500;9.59633600;2022-11-04T03:53:07;1.23;;;1.07;;
1999;SDS011;1001;48.87406500;9.59633600;2022-11-04T03:55:38;2.90;;;0.80;;
1999;SDS011;1001;48.87406500;9.59633600;2022-11-04T03:58:12;2.00;;;1.00;;
1999;SDS011;1001;48.87406500;9.59633600;2022-11-04T04:00:49;2.83;;;1.43;;
1999;SDS011;1001;48.87406500;9.59633600;2022-11-04T04:03:26;3.80;;;1.30;;
1999;SDS011;1001;48.87406500;9.59633600;2022-11-04T04:06:01;2.47;;;1.10;;
1999;SDS011;1001;48.87406500;9.59633600;2022-11-04T04:08:35;1.50;;;1.00;;
1999;SDS011;1001;48.87406500;9.59633600;2022-11-04T04:11:07;1.73;;;1.20;;
1999;SDS011;1001;48.87406500;9.59633600;2022-11-04T04:13:41;2.53;;;0.90;;
1999;SDS011;1001;48.87406500;9.59633600;2022-11-04T04:16:14;2.50;;;1.10;;
1999;SDS011;1001;48.87406500;9.59633600;2022-11-04T04:18:47;1.87;;;1.33;;
1999;SDS011;1001;48.87406500;9.59633600;2022-11-04T04:21:18;0.90;;;0.80;;
1999;SDS011;1001;48.87406500;9.59633600;2022-11-04T04:23:46;2.50;;;1.30;;
1999;SDS011;1001;48.87406500;9.59633600;2022-11-04T04:26:33;3.50;;;0.87;;
1999;SDS011;1001;48.87406500;9.59633600;2022-11-04T04:29:22;1.30;;;0.73;;
1999;SDS011;1001;48.87406500;9.59633600;2022-11-04T04:31:51;1.37;;;1.10;;
1999;SDS011;1001;48.87406500;9.59633600;2022-11-04T04:34:23;3.00;;;1.50;;
1999;SDS011;1001;48.87406500;9.59633600;2022-11-04T04:36:56;3.63;;;1.57;;
1999;SDS011;1001;48.87406500;9.59633600;2022-11-04T04:39:29;3.63;;;1.13;;
1999;SDS011;1001;48.87406500;9.59633600;2022-11-04T04:42:18;2.50;;;0.97;;
1999;SDS011;1001;48.87406500;9.59633600;2022-11-04T04:45:03;1.80;;;1.00;;
1999;SDS011;1001;48.87406500;9.59633600;2022-11-04T04:47:41;1.20;;;1.00;;
1999;SDS011;1001;48.87406500;9.59633600;2022-11-04T04:50:12;1.83;;;1.33;;
1999;SDS011;1001;48.87406500;9.59633600;2022-11-04T04:52:40;4.40;;;1.40;;
1999;SDS011;1001;48.87406500;9.59633600;2022-11-04T04:55:08;1.87;;;1.30;;
1999;SDS011;1001;48.87406500;9.59633600;2022-11-04T04:57:36;2.10;;;0.80;;
1999;SDS011;1001;48.87406500;9.59633600;2022-11-04T05:00:03;1.27;;;0.80;;
1999;SDS011;1001;48.87406500;9.59633600;2022-11-04T05:02:31;1.40;;;0.90;;
1999;SDS011;1001;48.87406500;9.59633600;2022-11-04T05:04:58;2.10;;;1.20;;
1999;SDS011;1001;48.87406500;9.59633600;2022-11-04T05:07:26;1.50;;;0.90;;
1999;SDS011;1001;48.87406500;9.59633600;2022-11-04T05:09:53;1.63;;;1.17;;
1999;SDS011;1001;48.87406500;9.59633600;2022-11-04T05:12:20;2.93;;;1.20;;
1999;SDS011;1001;48.87406500;9.59633600;2022-11-04T05:14:46;2.13;;;0.90;;
1999;SDS011;1001;48.87406500;9.59633600;2022-11-04T05:17:13;2.37;;;1.43;;
1999;SDS011;1001;48.87406500;9.59633600;2022-11-04T05:19:40;2.80;;;0.90;;
1999;SDS011;1001;48.87406500;9.59633600;2022-11-04T05:22:06;3.50;;;1.13;;
1999;SDS011;1001;48.87406500;9.59633600;2022-11-04T05:24:34;2.67;;;0.80;;
1999;SDS011;1001;48.87406500;9.59633600;2022-11-04T05:27:01;3.10;;;1.17;;
1999;SDS011;1001;48.87406500;9.59633600;2022-11-04T05:29:27;1.40;;;0.87;;
1999;SDS011;1001;48.87406500;9.59633600;2022-11-04T05:31:54;4.93;;;1.53;;
1999;SDS011;1001;48.87406500;9.59633600;2022-11-04T05:34:21;2.27;;;1.10;;
1999;SDS011;1001;48.87406500;9.59633600;2022-11-04T05:36:48;5.50;;;1.10;;
1999;SDS011;1001;48.87406500;9.59633600;2022-11-04T05:39:15;5.73;;;1.10;;
1999;SDS011;1001;48.87406500;9.59633600;2022-11-04T05:41:43;2.23;;;0.80;;
1999;SDS011;1001;48.87406500;9.59633600;2022-11-04T05:44:09;1.67;;;1.00;;
1999;SDS011;1001;48.87406500;9.59633600;2022-11-04T05:46:36;2.17;;;1.20;;
1999;SDS011;1001;48.87406500;9.59633600;2022-11-04T05:49:03;5.83;;;1.33;;
1999;SDS011;1001;48.87406500;9.59633600;2022-11-04T05:51:29;1.87;;;1.03;;
1999;SDS011;1001;48.87406500;9.59633600;2022-11-04T05:53:56;5.10;;;0.83;;
1999;SDS011;1001;48.87406500;9.59633600;2022-11-04T05:56:23;1.27;;;0.87;;
1999;SDS011;1001;48.87406500;9.59633600;2022-11-04T05:58:51;3.13;;;1.10;;
1999;SDS011;1001;48.87406500;9.59633600;2022-11-04T06:04:04;2.83;;;0.90;;
1999;SDS011;1001;48.87406500;9.59633600;2022-11-04T06:06:31;3.90;;;1.23;;
1999;SDS011;1001;48.87406500;9.59633600;2022-11-04T06:09:00;3.63;;;1.57;;
1999;SDS011;1001;48.87406500;9.59633600;2022-11-04T06:11:28;1.90;;;0.80;;
1999;SDS011;1001;48.87406500;9.59633600;2022-11-04T06:13:56;1.30;;;0.90;;
1999;SDS011;1001;48.87406500;9.59633600;2022-11-04T06:16:23;2.30;;;0.97;;
1999;SDS011;1001;48.87406500;9.59633600;2022-11-04T06:18:50;4.80;;;0.93;;
1999;SDS011;1001;48.87406500;9.59633600;2022-11-04T06:21:19;2.47;;;1.50;;
1999;SDS011;1001;48.87406500;9.59633600;2022-11-04T06:23:49;8.63;;;1.67;;
1999;SDS011;1001;48.87406500;9.59633600;2022-11-04T06:26:16;3.10;;;1.27;;
1999;SDS011;1001;48.87406500;9.59633600;2022-11-04T06:28:43;4.10;;;1.40;;
1999;SDS011;1001;48.87406500;9.59633600;2022-11-04T06:31:12;3.70;;;1.30;;
1999;SDS011;1001;48.87406500;9.59633600;2022-11-04T06:33:40;2.90;;;1.63;;
1999;SDS011;1001;48.87406500;9.59633600;2022-11-04T06:36:07;2.60;;;1.40;;
1999;SDS011;1001;48.87406500;9.59633600;2022-11-04T06:38:38;2.13;;;1.40;;
1999;SDS011;1001;48.87406500;9.59633600;2022-11-04T06:41:06;2.90;;;1.47;;
1999;SDS011;1001;48.87406500;9.59633600;2022-11-04T06:43:34;3.03;;;1.23;;
1999;SDS011;1001;48.87406500;9.59633600;2022-11-04T06:46:00;4.20;;;1.30;;
1999;SDS011;1001;48.87406500;9.59633600;2022-11-04T06:48:30;1.40;;;1.00;;
1999;SDS011;1001;48.87406500;9.59633600;2022-11-04T06:50:56;2.23;;;1.30;;
1999;SDS011;1001;48.87406500;9.59633600;2022-11-04T06:53:23;1.83;;;1.23;;
1999;SDS011;1001;48.87406500;9.59633600;2022-11-04T06:55:50;4.63;;;1.30;;
1999;SDS011;1001;48.87406500;9.59633600;2022-11-04T06:58:17;1.30;;;1.10;;
1999;SDS011;1001;48.87406500;9.59633600;2022-11-04T07:00:48;3.63;;;1.53;;
1999;SDS011;1001;48.87406500;9.59633600;2022-11-04T07:03:16;2.17;;;1.07;;
1999;SDS011;1001;48.87406500;9.59633600;2022-11-04T07:05:44;4.43;;;1.47;;
1999;SDS011;1001;48.87406500;9.59633600;2022-11-04T07:08:10;3.27;;;1.60;;
1999;SDS011;1001;48.87406500;9.59633600;2022-11-04T07:10:37;0.97;;;0.80;;
1999;SDS011;1001;48.87406500;9.59633600;2022-11-04T07:13:03;1.90;;;1.47;;
1999;SDS011;1001;48.87406500;9.59633600;2022-11-04T07:15:30;2.63;;;1.30;;
1999;SDS011;1001;48.87406500;9.59633600;2022-11-04T07:17:57;3.87;;;1.27;;
1999;SDS011;1001;48.87406500;9.59633600;2022-11-04T07:20:24;2.10;;;1.20;;
1999;SDS011;1001;48.87406500;9.59633600;2022-11-04T07:22:53;2.10;;;1.40;;
1999;SDS011;1001;48.87406500;9.59633600;2022-11-04T07:25:20;4.03;;;1.10;;
1999;SDS011;1001;48.87406500;9.59633600;2022-11-04T07:27:47;2.00;;;0.90;;
1999;SDS011;1001;48.87406500;9.59633600;2022-11-04T07:30:13;6.60;;;1.70;;
1999;SDS011;1001;48.87406500;9.59633600;2022-11-04T07:32:40;1.90;;;1.00;;
1999;SDS011;1001;48.87406500;9.59633600;2022-11-04T07:35:07;5.00;;;1.20;;
1999;SDS011;1001;48.87406500;9.59633600;2022-11-04T07:37:34;1.00;;;0.83;;
1999;SDS011;1001;48.87406500;9.59633600;2022-11-04T07:40:02;2.43;;;1.50;;
1999;SDS011;1001;48.87406500;9.59633600;2022-11-04T07:42:30;1.70;;;0.93;;
1999;SDS011;1001;48.87406500;9.59633600;2022-11-04T07:44:56;1.30;;;1.20;;
1999;SDS011;1001;48.87406500;9.59633600;2022-11-04T07:47:23;1.43;;;0.83;;
1999;SDS011;1001;48.87406500;9.59633600;2022-11-04T07:49:49;1.33;;;0.83;;
1999;SDS011;1001;48.87406500;9.59633600;2022-11-04T07:52:16;1.30;;;0.90;;
1999;SDS011;1001;48.87406500;9.59633600;2022-11-04T07:54:43;1.57;;;0.97;;
1999;SDS011;1001;48.87406500;9.59633600;2022-11-04T07:57:11;1.53;;;0.60;;
1999;SDS011;1001;48.87406500;9.59633600;2022-11-04T07:59:37;2.57;;;1.10;;
1999;SDS011;1001;48.87406500;9.59633600;2022-11-04T08:02:04;1.90;;;0.93;;
1999;SDS011;1001;48.87406500;9.59633600;2022-11-04T08:04:31;1.83;;;0.80;;
1999;SDS011;1001;48.87406500;9.59633600;2022-11-04T08:06:57;2.30;;;0.90;;
1999;SDS011;1001;48.87406500;9.59633600;2022-11-04T08:09:24;1.60;;;1.10;;
1999;SDS011;1001;48.87406500;9.59633600;2022-11-04T08:11:51;1.53;;;1.00;;
1999;SDS011;1001;48.87406500;9.59633600;2022-11-04T08:14:19;5.50;;;1.13;;
1999;SDS011;1001;48.87406500;9.59633600;2022-11-04T08:16:48;1.40;;;0.90;;
1999;SDS011;1001;48.87406500;9.59633600;2022-11-04T08:19:15;1.77;;;1.03;;
1999;SDS011;1001;48.87406500;9.59633600;2022-11-04T08:21:42;1.67;;;1.27;;
1999;SDS011;1001;48.87406500;9.59633600;2022-11-04T08:24:08;1.90;;;0.90;;
1999;SDS011;1001;48.87406500;9.59633600;2022-11-04T08:26:35;2.00;;;1.20;;
1999;SDS011;1001;48.87406500;9.59633600;2022-11-04T08:29:04;3.67;;;1.50;;
1999;SDS011;1001;48.87406500;9.59633600;2022-11-04T08:31:33;1.47;;;1.07;;
1999;SDS011;1001;48.87406500;9.59633600;2022-11-04T08:34:01;2.23;;;1.20;;
1999;SDS011;1001;48.87406500;9.59633600;2022-11-04T08:36:31;1.53;;;0.80;;
1999;SDS011;1001;48.87406500;9.59633600;2022-11-04T08:39:01;1.27;;;0.97;;
1999;SDS011;1001;48.87406500;9.59633600;2022-11-04T08:41:30;2.30;;;1.13;;
1999;SDS011;1001;48.87406500;9.59633600;2022-11-04T08:43:58;1.93;;;0.90;;
1999;SDS011;1001;48.87406500;9.59633600;2022-11-04T08:46:28;2.90;;;1.33;;
1999;SDS011;1001;48.87406500;9.59633600;2022-11-04T08:49:00;1.13;;;0.97;;
1999;SDS011;1001;48.87406500;9.59633600;2022-11-04T08:51:27;2.47;;;1.33;;
1999;SDS011;1001;48.87406500;9.59633600;2022-11-04T08:53:54;1.63;;;0.97;;
1999;SDS011;1001;48.87406500;9.59633600;2022-11-04T08:56:21;1.20;;;0.93;;
1999;SDS011;1001;48.87406500;9.59633600;2022-11-04T08:58:50;1.43;;;0.80;;
1999;SDS011;1001;48.87406500;9.59633600;2022-11-04T09:01:17;1.10;;;0.90;;
1999;SDS011;1001;48.87406500;9.59633600;2022-11-04T09:03:44;1.30;;;1.10;;
1999;SDS011;1001;48.87406500;9.59633600;2022-11-04T09:06:14;1.53;;;1.00;;
1999;SDS011;1001;48.87406500;9.59633600;2022-11-04T09:08:43;1.77;;;1.27;;
1999;SDS011;1001;48.87406500;9.59633600;2022-11-04T09:11:11;1.40;;;1.10;;
1999;SDS011;1001;48.87406500;9.59633600;2022-11-04T09:13:38;1.50;;;1.00;;
1999;SDS011;1001;48.87406500;9.59633600;2022-11-04T09:16:06;0.90;;;0.60;;
1999;SDS011;1001;48.87406500;9.59633600;2022-11-04T09:18:33;2.33;;;0.97;;
1999;SDS011;1001;48.87406500;9.59633600;2022-11-04T09:21:00;1.97;;;0.73;;
1999;SDS011;1001;48.87406500;9.59633600;2022-11-04T09:23:30;1.83;;;1.30;;
1999;SDS011;1001;48.87406500;9.59633600;2022-11-04T09:25:57;2.10;;;0.70;;
1999;SDS011;1001;48.87406500;9.59633600;2022-11-04T09:28:28;3.97;;;0.90;;
1999;SDS011;1001;48.87406500;9.59633600;2022-11-04T09:30:55;2.87;;;0.90;;
1999;SDS011;1001;48.87406500;9.59633600;2022-11-04T09:33:22;2.20;;;1.07;;
1999;SDS011;1001;48.87406500;9.59633600;2022-11-04T09:35:53;1.37;;;1.10;;
1999;SDS011;1001;48.87406500;9.59633600;2022-11-04T09:38:20;3.07;;;1.40;;
1999;SDS011;1001;48.87406500;9.59633600;2022-11-04T09:40:48;2.10;;;1.43;;
1999;SDS011;1001;48.87406500;9.59633600;2022-11-04T09:43:19;2.10;;;1.00;;
1999;SDS011;1001;48.87406500;9.59633600;2022-11-04T09:45:56;1.77;;;1.37;;
1999;SDS011;1001;48.87406500;9.59633600;2022-11-04T09:48:25;3.73;;;1.40;;
1999;SDS011;1001;48.87406500;9.59633600;2022-11-04T09:50:58;2.60;;;1.20;;
1999;SDS011;1001;48.87406500;9.59633600;2022-11-04T09:53:27;1.10;;;0.60;;
1999;SDS011;1001;48.87406500;9.59633600;2022-11-04T09:56:02;2.20;;;0.90;;
1999;SDS011;1001;48.87406500;9.59633600;2022-11-04T09:58:33;2.13;;;0.90;;
1999;SDS011;1001;48.87406500;9.59633600;2022-11-04T10:01:05;1.77;;;1.00;;
1999;SDS011;1001;48.87406500;9.59633600;2022-11-04T10:03:47;2.53;;;1.17;;
1999;SDS011;1001;48.87406500;9.59633600;2022-11-04T10:06:26;2.67;;;0.77;;
1999;SDS011;1001;48.87406500;9.59633600;2022-11-04T10:09:04;2.20;;;1.07;;
1999;SDS011;1001;48.87406500;9.59633600;2022-11-04T10:11:44;1.10;;;0.73;;
1999;SDS011;1001;48.87406500;9.59633600;2022-11-04T10:14:23;1.90;;;0.97;;
1999;SDS011;1001;48.87406500;9.59633600;2022-11-04T10:17:13;1.73;;;0.80;;
1999;SDS011;1001;48.87406500;9.59633600;2022-11-04T10:19:56;1.87;;;1.20;;
1999;SDS011;1001;48.87406500;9.59633600;2022-11-04T10:22:37;1.87;;;1.00;;
1999;SDS011;1001;48.87406500;9.59633600;2022-11-04T10:25:14;2.20;;;1.10;;
1999;SDS011;1001;48.87406500;9.59633600;2022-11-04T10:27:46;2.60;;;1.10;;
1999;SDS011;1001;48.87406500;9.59633600;2022-11-04T10:30:15;2.30;;;0.90;;
1999;SDS011;1001;48.87406500;9.59633600;2022-11-04T10:32:48;0.87;;;0.73;;
1999;SDS011;1001;48.87406500;9.59633600;2022-11-04T10:35:27;5.20;;;0.90;;
1999;SDS011;1001;48.87406500;9.59633600;2022-11-04T10:38:00;1.03;;;0.80;;
1999;SDS011;1001;48.87406500;9.59633600;2022-11-04T10:40:38;4.20;;;1.20;;
1999;SDS011;1001;48.87406500;9.59633600;2022-11-04T10:43:09;1.63;;;0.80;;
1999;SDS011;1001;48.87406500;9.59633600;2022-11-04T10:45:42;2.37;;;1.00;;
1999;SDS011;1001;48.87406500;9.59633600;2022-11-04T10:48:18;2.10;;;0.90;;
1999;SDS011;1001;48.87406500;9.59633600;2022-11-04T10:50:51;1.30;;;1.07;;
1999;SDS011;1001;48.87406500;9.59633600;2022-11-04T10:53:21;2.70;;;1.10;;
1999;SDS011;1001;48.87406500;9.59633600;2022-11-04T10:55:51;1.83;;;0.90;;
1999;SDS011;1001;48.87406500;9.59633600;2022-11-04T10:58:26;3.50;;;1.00;;
1999;SDS011;1001;48.87406500;9.59633600;2022-11-04T11:00:56;3.23;;;1.10;;
1999;SDS011;1001;48.87406500;9.59633600;2022-11-04T11:03:24;2.20;;;1.30;;
1999;SDS011;1001;48.87406500;9.59633600;2022-11-04T11:05:55;2.83;;;1.50;;
1999;SDS011;1001;48.87406500;9.59633600;2022-11-04T11:08:36;1.77;;;1.00;;
1999;SDS011;1001;48.87406500;9.59633600;2022-11-04T11:11:03;2.10;;;1.07;;
1999;SDS011;1001;48.87406500;9.59633600;2022-11-04T11:13:35;2.90;;;1.10;;
1999;SDS011;1001;48.87406500;9.59633600;2022-11-04T11:16:04;2.50;;;1.03;;
1999;SDS011;1001;48.87406500;9.59633600;2022-11-04T11:18:33;2.63;;;1.27;;
1999;SDS011;1001;48.87406500;9.59633600;2022-11-04T11:21:05;2.67;;;1.07;;
1999;SDS011;1001;48.87406500;9.59633600;2022-11-04T11:23:39;1.30;;;0.70;;
1999;SDS011;1001;48.87406500;9.59633600;2022-11-04T11:26:08;3.67;;;1.00;;
1999;SDS011;1001;48.87406500;9.59633600;2022-11-04T11:28:39;3.20;;;0.90;;
1999;SDS011;1001;48.87406500;9.59633600;2022-11-04T11:31:10;2.00;;;0.83;;
1999;SDS011;1001;48.87406500;9.59633600;2022-11-04T11:33:48;1.60;;;0.93;;
1999;SDS011;1001;48.87406500;9.59633600;2022-11-04T11:36:19;1.90;;;0.70;;
1999;SDS011;1001;48.87406500;9.59633600;2022-11-04T11:38:55;1.90;;;0.93;;
1999;SDS011;1001;48.87406500;9.59633600;2022-11-04T11:41:29;1.73;;;0.87;;
1999;SDS011;1001;48.87406500;9.59633600;2022-11-04T11:44:01;1.33;;;0.70;;
1999;SDS011;1001;48.87406500;9.59633600;2022-11-04T11:46:32;4.03;;;1.70;;
1999;SDS011;1001;48.87406500;9.59633600;2022-11-04T11:49:03;4.40;;;1.13;;
1999;SDS011;1001;48.87406500;9.59633600;2022-11-04T11:51:31;3.73;;;1.00;;
1999;SDS011;1001;48.87406500;9.59633600;2022-11-04T11:54:01;4.93;;;1.00;;
1999;SDS011;1001;48.87406500;9.59633600;2022-11-04T11:56:40;3.67;;;1.20;;
1999;SDS011;1001;48.87406500;9.59633600;2022-11-04T11:59:14;1.23;;;0.77;;
1999;SDS011;1001;48.87406500;9.59633600;2022-11-04T12:01:48;2.83;;;1.00;;
1999;SDS011;1001;48.87406500;9.59633600;2022-11-04T12:04:18;3.33;;;1.43;;
1999;SDS011;1001;48.87406500;9.59633600;2022-11-04T12:06:47;1.57;;;1.20;;
1999;SDS011;1001;48.87406500;9.59633600;2022-11-04T12:09:23;2.10;;;0.83;;
1999;SDS011;1001;48.87406500;9.59633600;2022-11-04T12:12:00;7.07;;;1.90;;
1999;SDS011;1001;48.87406500;9.59633600;2022-11-04T12:14:40;2.40;;;1.13;;
1999;SDS011;1001;48.87406500;9.59633600;2022-11-04T12:17:21;3.83;;;1.10;;
1999;SDS011;1001;48.87406500;9.59633600;2022-11-04T12:20:02;2.40;;;1.20;;
1999;SDS011;1001;48.87406500;9.59633600;2022-11-04T12:22:44;4.23;;;1.33;;
1999;SDS011;1001;48.87406500;9.59633600;2022-11-04T12:25:18;3.13;;;0.70;;
1999;SDS011;1001;48.87406500;9.59633600;2022-11-04T12:27:53;2.90;;;1.10;;
1999;SDS011;1001;48.87406500;9.59633600;2022-11-04T12:30:25;3.33;;;1.17;;
1999;SDS011;1001;48.87406500;9.59633600;2022-11-04T12:32:59;2.23;;;1.10;;
1999;SDS011;1001;48.87406500;9.59633600;2022-11-04T12:35:41;5.07;;;1.07;;
1999;SDS011;1001;48.87406500;9.59633600;2022-11-04T12:38:41;4.70;;;0.90;;
1999;SDS011;1001;48.87406500;9.59633600;2022-11-04T12:41:20;6.80;;;1.30;;
1999;SDS011;1001;48.87406500;9.59633600;2022-11-04T12:43:55;2.27;;;1.07;;
1999;SDS011;1001;48.87406500;9.59633600;2022-11-04T12:46:31;3.33;;;1.23;;
1999;SDS011;1001;48.87406500;9.59633600;2022-11-04T12:49:15;2.27;;;1.10;;
1999;SDS011;1001;48.87406500;9.59633600;2022-11-04T12:52:05;11.00;;;1.00;;
1999;SDS011;1001;48.87406500;9.59633600;2022-11-04T12:54:45;4.63;;;1.20;;
1999;SDS011;1001;48.87406500;9.59633600;2022-11-04T12:57:25;4.27;;;1.33;;
1999;SDS011;1001;48.87406500;9.59633600;2022-11-04T13:00:04;3.40;;;1.67;;
1999;SDS011;1001;48.87406500;9.59633600;2022-11-04T13:02:37;2.63;;;1.10;;
1999;SDS011;1001;48.87406500;9.59633600;2022-11-04T13:05:24;1.70;;;1.13;;
1999;SDS011;1001;48.87406500;9.59633600;2022-11-04T13:08:02;3.63;;;1.33;;
1999;SDS011;1001;48.87406500;9.59633600;2022-11-04T13:10:37;4.40;;;1.07;;
1999;SDS011;1001;48.87406500;9.59633600;2022-11-04T13:13:07;3.67;;;1.17;;
1999;SDS011;1001;48.87406500;9.59633600;2022-11-04T13:15:38;2.80;;;1.23;;
1999;SDS011;1001;48.87406500;9.59633600;2022-11-04T13:18:13;1.67;;;1.17;;
1999;SDS011;1001;48.87406500;9.59633600;2022-11-04T13:20:44;6.83;;;1.73;;
1999;SDS011;1001;48.87406500;9.59633600;2022-11-04T13:23:17;3.00;;;1.30;;
1999;SDS011;1001;48.87406500;9.59633600;2022-11-04T13:25:49;4.77;;;1.10;;
1999;SDS011;1001;48.87406500;9.59633600;2022-11-04T13:28:18;2.47;;;1.10;;
1999;SDS011;1001;48.87406500;9.59633600;2022-11-04T13:30:49;5.53;;;1.10;;
1999;SDS011;1001;48.87406500;9.59633600;2022-11-04T13:33:26;2.13;;;1.10;;
1999;SDS011;1001;48.87406500;9.59633600;2022-11-04T13:36:01;1.80;;;0.90;;
1999;SDS011;1001;48.87406500;9.59633600;2022-11-04T13:38:38;3.73;;;1.23;;
1999;SDS011;1001;48.87406500;9.59633600;2022-11-04T13:41:15;2.30;;;1.30;;